Time;durP1;ratioP1;P1;durP2;ratioP2;P2;SDS_P1;SDS_P2;PMS_P1;PMS_P2;Temp;Humidity;BMP_temperature;BMP_pressure;BME280_temperature;BME280_humidity;BME280_pressure;Samples;Min_cycle;Max_cycle;Signal;HPM_P1;HPM_P2
2022/10/02 00:00:21;;;;;;;7.95;2.15;;;11.20;99.90;;;;;;5030868;28;20457;-83
2022/10/02 00:03:00;;;;;;;10.05;2.70;;;11.20;99.90;;;;;;5036868;28;20123;-83
2022/10/02 00:05:36;;;;;;;7.78;2.05;;;11.30;99.90;;;;;;5037374;28;20067;-83
2022/10/02 00:08:15;;;;;;;9.05;1.80;;;11.30;99.90;;;;;;5043200;28;20072;-83
2022/10/02 00:10:59;;;;;;;9.05;2.42;;;11.30;99.90;;;;;;5006257;28;20044;-83
2022/10/02 00:13:40;;;;;;;9.18;1.88;;;11.40;99.90;;;;;;5006055;28;20032;-84
2022/10/02 00:16:18;;;;;;;10.35;2.13;;;11.40;99.90;;;;;;5046213;28;20053;-85
2022/10/02 00:18:46;;;;;;;5.72;1.55;;;11.40;99.90;;;;;;5039494;28;20046;-83
2022/10/02 00:21:32;;;;;;;8.27;1.65;;;11.40;99.90;;;;;;5044588;28;20396;-84
2022/10/02 00:24:00;;;;;;;7.82;1.88;;;11.40;99.90;;;;;;5041953;28;20550;-83
2022/10/02 00:26:31;;;;;;;12.25;2.28;;;11.30;99.90;;;;;;5027398;28;20053;-83
2022/10/02 00:28:57;;;;;;;13.87;2.53;;;11.30;99.90;;;;;;5030014;28;20041;-84
2022/10/02 00:31:25;;;;;;;5.07;1.80;;;11.30;99.90;;;;;;5027638;28;20370;-84
2022/10/02 00:33:58;;;;;;;6.20;1.55;;;11.30;99.90;;;;;;5041681;28;20056;-84
2022/10/02 00:36:48;;;;;;;8.65;2.08;;;11.30;99.90;;;;;;5046291;28;20103;-83
2022/10/02 00:39:43;;;;;;;10.10;2.22;;;11.30;99.90;;;;;;5011252;28;20075;-87
2022/10/02 00:42:18;;;;;;;8.13;2.08;;;11.30;99.90;;;;;;5050798;28;20391;-83
2022/10/02 00:44:44;;;;;;;5.40;1.65;;;11.20;99.90;;;;;;5021003;28;20487;-85
2022/10/02 00:47:35;;;;;;;7.60;1.45;;;11.20;99.90;;;;;;5044262;28;20055;-87
2022/10/02 00:50:07;;;;;;;10.25;1.88;;;11.20;99.90;;;;;;5041137;28;20502;-83
2022/10/02 00:52:48;;;;;;;12.30;2.00;;;11.10;99.90;;;;;;5024047;28;20053;-87
2022/10/02 00:55:26;;;;;;;6.57;1.77;;;11.10;99.90;;;;;;5022404;28;20699;-86
2022/10/02 00:58:06;;;;;;;5.13;1.17;;;11.20;99.90;;;;;;5023887;28;20647;-82
2022/10/02 01:00:32;;;;;;;7.65;2.28;;;11.10;99.90;;;;;;5045176;28;20087;-85
2022/10/02 01:03:07;;;;;;;6.05;1.98;;;11.20;99.90;;;;;;5041694;28;20040;-83
2022/10/02 01:05:33;;;;;;;11.48;2.40;;;11.10;99.90;;;;;;5037738;28;20128;-83
2022/10/02 01:08:00;;;;;;;9.18;2.13;;;11.10;99.90;;;;;;5019929;28;20044;-83
2022/10/02 01:10:27;;;;;;;7.03;1.63;;;11.10;99.90;;;;;;5044322;28;20049;-88
2022/10/02 01:12:54;;;;;;;10.38;1.60;;;11.10;99.90;;;;;;5043808;28;20055;-83
2022/10/02 01:15:25;;;;;;;4.68;1.60;;;11.20;99.90;;;;;;5024784;28;20033;-89
2022/10/02 01:17:52;;;;;;;7.75;1.52;;;11.20;99.90;;;;;;5038600;28;20487;-89
2022/10/02 01:20:40;;;;;;;5.45;1.52;;;11.20;99.90;;;;;;5046200;28;20041;-84
2022/10/02 01:23:46;;;;;;;7.07;2.28;;;11.20;99.90;;;;;;5026648;28;20045;-84
2022/10/02 01:26:12;;;;;;;8.52;1.85;;;11.30;99.90;;;;;;5020083;28;20075;-84
2022/10/02 01:28:38;;;;;;;7.68;1.67;;;11.30;99.90;;;;;;5022831;28;20122;-83
2022/10/02 01:31:09;;;;;;;13.23;3.13;;;11.30;99.90;;;;;;5040399;28;20059;-83
2022/10/02 01:33:37;;;;;;;7.85;1.88;;;11.30;99.90;;;;;;5026840;28;20057;-84
2022/10/02 01:36:03;;;;;;;7.03;1.77;;;11.30;99.90;;;;;;5007649;28;20038;-83
2022/10/02 01:38:30;;;;;;;7.75;2.20;;;11.20;99.90;;;;;;5042452;28;20049;-84
2022/10/02 01:40:55;;;;;;;9.40;2.13;;;11.20;99.90;;;;;;5034736;28;20041;-83
2022/10/02 01:43:30;;;;;;;9.48;2.88;;;11.10;99.90;;;;;;5046729;28;20056;-83
2022/10/02 01:46:03;;;;;;;9.20;2.72;;;11.10;99.90;;;;;;5042822;28;20060;-84
2022/10/02 01:48:34;;;;;;;17.40;2.55;;;11.10;99.90;;;;;;5041474;28;20128;-84
2022/10/02 01:51:22;;;;;;;10.43;2.28;;;11.10;99.90;;;;;;5025986;28;20124;-83
2022/10/02 01:54:13;;;;;;;14.05;2.30;;;11.10;99.90;;;;;;5021621;28;20487;-84
2022/10/02 01:57:03;;;;;;;10.90;2.42;;;11.10;99.90;;;;;;5008303;28;20045;-84
2022/10/02 01:59:47;;;;;;;5.72;1.85;;;11.10;99.90;;;;;;5040078;28;20112;-83
2022/10/02 02:02:32;;;;;;;10.18;3.28;;;11.10;99.90;;;;;;5008679;28;20136;-84
2022/10/02 02:05:07;;;;;;;13.57;3.05;;;11.10;99.90;;;;;;5009651;28;20106;-85
2022/10/02 02:08:10;;;;;;;8.75;2.13;;;11.10;99.90;;;;;;5041116;28;20045;-83
2022/10/02 02:10:40;;;;;;;;;;;11.10;99.90;;;;;;4992072;28;20555;-83
2022/10/02 02:13:12;;;;;;;8.52;1.60;;;11.10;99.90;;;;;;5039412;28;19925;-83
2022/10/02 02:16:07;;;;;;;5.80;1.60;;;11.10;99.90;;;;;;5004375;28;20785;-83
2022/10/02 02:18:40;;;;;;;9.38;2.40;;;11.10;99.90;;;;;;5044516;28;20496;-84
2022/10/02 02:21:17;;;;;;;10.95;2.08;;;11.10;99.90;;;;;;5027649;28;20080;-84
2022/10/02 02:23:44;;;;;;;7.85;2.00;;;11.10;99.90;;;;;;5003465;28;20387;-87
2022/10/02 02:26:11;;;;;;;4.32;1.90;;;11.10;99.90;;;;;;5041282;28;20502;-83
2022/10/02 02:28:42;;;;;;;8.52;1.90;;;11.10;99.90;;;;;;5027039;28;20041;-83
2022/10/02 02:31:13;;;;;;;11.57;1.98;;;11.10;99.90;;;;;;5034279;28;20513;-83
2022/10/02 02:33:47;;;;;;;4.80;1.60;;;11.00;99.90;;;;;;5039704;28;20203;-83
2022/10/02 02:36:17;;;;;;;12.40;2.25;;;11.10;99.90;;;;;;5027062;28;20045;-83
2022/10/02 02:39:00;;;;;;;7.50;1.77;;;11.10;99.90;;;;;;5042075;28;20041;-83
2022/10/02 02:41:30;;;;;;;8.43;1.35;;;11.10;99.90;;;;;;5024702;28;20045;-90
2022/10/02 02:44:04;;;;;;;11.13;1.33;;;11.10;99.90;;;;;;5034446;28;20061;-83
2022/10/02 02:47:02;;;;;;;7.63;2.67;;;11.20;99.90;;;;;;5045155;28;20041;-83
2022/10/02 02:49:26;;;;;;;8.98;1.42;;;11.20;99.90;;;;;;5022509;28;20047;-82
2022/10/02 02:51:53;;;;;;;12.40;2.50;;;11.20;99.90;;;;;;5044369;28;20040;-82
2022/10/02 02:54:43;;;;;;;5.25;1.60;;;11.20;99.90;;;;;;5018735;28;20156;-83
2022/10/02 02:57:10;;;;;;;10.85;1.60;;;11.20;99.90;;;;;;5001409;28;20052;-83
2022/10/02 02:59:38;;;;;;;4.40;1.70;;;11.20;99.90;;;;;;5023675;28;20053;-83
2022/10/02 03:02:04;;;;;;;6.85;1.85;;;11.30;99.90;;;;;;5025711;28;20124;-83
2022/10/02 03:04:30;;;;;;;6.05;1.17;;;11.30;99.90;;;;;;5020493;28;20428;-84
2022/10/02 03:07:01;;;;;;;7.88;1.30;;;11.30;99.90;;;;;;5039677;28;20049;-83
2022/10/02 03:09:31;;;;;;;7.22;1.15;;;11.30;99.90;;;;;;5041877;28;20120;-83
2022/10/02 03:12:18;;;;;;;4.97;1.10;;;11.30;99.90;;;;;;5006992;28;20053;-85
2022/10/02 03:15:03;;;;;;;5.97;1.65;;;11.30;99.90;;;;;;5031666;28;20214;-85
2022/10/02 03:17:52;;;;;;;6.65;1.27;;;11.20;99.90;;;;;;5045642;28;20050;-83
2022/10/02 03:20:38;;;;;;;6.65;0.90;;;11.20;99.90;;;;;;5023057;28;20124;-83
2022/10/02 03:23:03;;;;;;;4.68;1.25;;;11.10;99.90;;;;;;5023841;28;20049;-85
2022/10/02 03:25:59;;;;;;;5.95;1.08;;;11.20;99.90;;;;;;5016180;28;20056;-84
2022/10/02 03:28:35;;;;;;;11.25;2.05;;;11.10;99.90;;;;;;5018171;28;20045;-86
2022/10/02 03:31:02;;;;;;;7.70;1.35;;;11.10;99.90;;;;;;5035788;28;20060;-84
2022/10/02 03:33:29;;;;;;;6.28;1.77;;;11.00;99.90;;;;;;5025190;28;20466;-82
2022/10/02 03:35:55;;;;;;;7.05;1.15;;;11.10;99.90;;;;;;5022638;28;20044;-83
2022/10/02 03:38:23;;;;;;;7.97;1.73;;;11.10;99.90;;;;;;5038154;28;20037;-83
2022/10/02 03:40:51;;;;;;;6.03;1.23;;;11.00;99.90;;;;;;5026877;28;20057;-83
2022/10/02 03:43:21;;;;;;;7.75;1.10;;;11.00;99.90;;;;;;5015295;28;20140;-90
2022/10/02 03:45:47;;;;;;;6.10;1.10;;;11.00;99.90;;;;;;5041402;28;20061;-82
2022/10/02 03:48:14;;;;;;;10.23;1.83;;;11.00;99.90;;;;;;5041955;28;20033;-83
2022/10/02 03:50:39;;;;;;;3.88;1.20;;;11.10;99.90;;;;;;5027853;28;20057;-83
2022/10/02 03:53:14;;;;;;;8.13;1.08;;;11.00;99.90;;;;;;5048160;28;20048;-84
2022/10/02 03:56:26;;;;;;;11.30;1.27;;;11.00;99.90;;;;;;5131731;27;20415;-77
2022/10/02 03:58:53;;;;;;;8.35;1.42;;;11.00;99.90;;;;;;5126595;28;20538;-77
2022/10/02 04:01:26;;;;;;;6.63;1.40;;;11.00;99.90;;;;;;5110473;28;20047;-78
2022/10/02 04:03:58;;;;;;;4.47;1.25;;;11.00;99.90;;;;;;5116992;28;20036;-77
2022/10/02 04:07:00;;;;;;;12.40;1.60;;;11.00;99.90;;;;;;5127203;28;20122;-78
2022/10/02 04:09:29;;;;;;;5.55;1.25;;;10.90;99.90;;;;;;5123709;28;20059;-78
2022/10/02 04:12:12;;;;;;;8.95;1.35;;;10.90;99.90;;;;;;5112628;28;20066;-78
2022/10/02 04:14:46;;;;;;;4.95;0.98;;;10.90;99.90;;;;;;5105863;28;20039;-78
2022/10/02 04:17:16;;;;;;;4.55;1.40;;;10.90;99.90;;;;;;5124586;28;20035;-78
2022/10/02 04:19:58;;;;;;;10.20;1.45;;;10.80;99.90;;;;;;5128407;27;20043;-78
2022/10/02 04:22:54;;;;;;;6.55;1.50;;;10.80;99.90;;;;;;5114128;28;20102;-77
2022/10/02 04:25:36;;;;;;;8.05;1.20;;;10.80;99.90;;;;;;5117831;28;20512;-78
2022/10/02 04:28:06;;;;;;;10.67;1.50;;;10.80;99.90;;;;;;5110395;28;20176;-78
2022/10/02 04:30:32;;;;;;;10.90;1.67;;;10.80;99.90;;;;;;5106668;28;20142;-78
2022/10/02 04:33:11;;;;;;;7.60;1.80;;;10.80;99.90;;;;;;5110337;28;20075;-78
2022/10/02 04:35:46;;;;;;;6.63;1.67;;;10.80;99.90;;;;;;5111185;28;20051;-78
2022/10/02 04:38:20;;;;;;;9.95;2.28;;;10.80;99.90;;;;;;5114068;28;20043;-78
2022/10/02 04:41:06;;;;;;;11.95;2.15;;;10.80;99.90;;;;;;5107212;28;20070;-78
2022/10/02 04:43:58;;;;;;;17.70;3.53;;;10.80;99.90;;;;;;5124716;28;20051;-77
2022/10/02 04:46:26;;;;;;;9.88;2.35;;;10.80;99.90;;;;;;5118582;28;20040;-78
2022/10/02 04:49:10;;;;;;;10.15;2.00;;;10.80;99.90;;;;;;5113682;28;20074;-78
2022/10/02 04:51:57;;;;;;;9.80;1.63;;;10.80;99.90;;;;;;5100093;28;20048;-78
2022/10/02 04:54:35;;;;;;;12.07;1.60;;;10.70;99.90;;;;;;5106023;28;20048;-78
2022/10/02 04:57:30;;;;;;;9.60;2.10;;;10.70;99.90;;;;;;5135429;27;20051;-78
2022/10/02 05:00:09;;;;;;;10.75;1.85;;;10.70;99.90;;;;;;5127975;28;20047;-78
2022/10/02 05:02:41;;;;;;;4.32;1.50;;;10.70;99.90;;;;;;5126751;28;20040;-78
2022/10/02 05:05:10;;;;;;;16.30;2.22;;;10.60;99.90;;;;;;5110919;28;20454;-78
2022/10/02 05:07:44;;;;;;;6.43;1.52;;;10.70;99.90;;;;;;5110033;28;20044;-78
2022/10/02 05:10:16;;;;;;;11.10;2.22;;;10.70;99.90;;;;;;5124730;27;20047;-78
2022/10/02 05:12:49;;;;;;;9.93;1.83;;;10.60;99.90;;;;;;5093463;28;20041;-79
2022/10/02 05:15:31;;;;;;;15.63;2.30;;;10.60;99.90;;;;;;5094670;28;20071;-78
2022/10/02 05:18:25;;;;;;;14.90;1.85;;;10.60;99.90;;;;;;5108007;28;20052;-78
2022/10/02 05:21:02;;;;;;;11.00;2.40;;;10.60;99.90;;;;;;5109722;28;20048;-78
2022/10/02 05:23:56;;;;;;;11.02;2.10;;;10.60;99.90;;;;;;5090657;28;20109;-78
2022/10/02 05:26:34;;;;;;;11.27;2.30;;;10.60;99.90;;;;;;5083883;28;20042;-78
2022/10/02 05:29:02;;;;;;;11.95;2.75;;;10.70;99.90;;;;;;5129284;27;20051;-78
2022/10/02 05:31:32;;;;;;;12.15;1.90;;;10.70;99.90;;;;;;5092107;28;20044;-78
2022/10/02 05:34:24;;;;;;;7.40;2.10;;;10.70;99.90;;;;;;5096892;28;20058;-78
2022/10/02 05:36:53;;;;;;;9.88;2.35;;;10.70;99.90;;;;;;5111053;28;20509;-78
2022/10/02 05:39:32;;;;;;;14.40;2.05;;;10.70;99.90;;;;;;5128723;27;20207;-78
2022/10/02 05:42:19;;;;;;;11.52;2.20;;;10.70;99.90;;;;;;5111008;28;20062;-78
2022/10/02 05:44:51;;;;;;;12.20;2.20;;;10.60;99.90;;;;;;5092267;28;20036;-79
2022/10/02 05:47:25;;;;;;;7.50;2.10;;;10.60;99.90;;;;;;5094836;28;20074;-78
2022/10/02 05:49:59;;;;;;;13.00;1.90;;;10.60;99.90;;;;;;5096419;28;20031;-78
2022/10/02 05:52:34;;;;;;;10.63;2.28;;;10.70;99.90;;;;;;5127327;27;20042;-78
2022/10/02 05:55:07;;;;;;;6.70;1.60;;;10.60;99.90;;;;;;5104606;28;20096;-78
2022/10/02 05:57:40;;;;;;;7.28;1.73;;;10.70;99.90;;;;;;5094490;28;20074;-78
2022/10/02 06:00:24;;;;;;;13.82;2.03;;;10.70;99.90;;;;;;5110489;28;20045;-78
2022/10/02 06:03:03;;;;;;;6.88;1.75;;;10.70;99.90;;;;;;5111650;28;20044;-78
2022/10/02 06:05:37;;;;;;;10.63;1.40;;;10.80;99.90;;;;;;5104468;27;20035;-77
2022/10/02 06:08:08;;;;;;;19.73;2.15;;;10.80;99.90;;;;;;5105215;28;20048;-78
2022/10/02 06:10:47;;;;;;;6.95;1.67;;;10.80;99.90;;;;;;5095671;28;20043;-78
2022/10/02 06:13:29;;;;;;;6.88;2.28;;;10.80;99.90;;;;;;5116367;28;20055;-78
2022/10/02 06:16:19;;;;;;;12.63;2.47;;;10.90;99.90;;;;;;5113458;27;20084;-78
2022/10/02 06:18:53;;;;;;;8.50;2.20;;;10.90;99.90;;;;;;5092390;28;20048;-78
2022/10/02 06:21:34;;;;;;;12.70;2.40;;;10.90;99.90;;;;;;5107429;28;20040;-78
2022/10/02 06:24:07;;;;;;;16.67;2.90;;;10.90;99.90;;;;;;5105910;28;20047;-77
2022/10/02 06:26:47;;;;;;;11.25;1.92;;;10.90;99.90;;;;;;5091748;28;20036;-78
2022/10/02 06:29:24;;;;;;;11.68;1.83;;;11.00;99.90;;;;;;5105247;28;20048;-78
2022/10/02 06:32:18;;;;;;;12.15;3.05;;;11.00;99.90;;;;;;5109224;28;20047;-79
2022/10/02 06:34:44;;;;;;;12.43;2.75;;;11.10;99.90;;;;;;5125224;27;20113;-79
2022/10/02 06:37:32;;;;;;;8.55;2.00;;;11.20;99.90;;;;;;5091791;28;20085;-78
2022/10/02 06:40:36;;;;;;;11.63;1.80;;;11.20;99.90;;;;;;5091236;28;20044;-78
2022/10/02 06:43:29;;;;;;;10.00;2.42;;;11.40;99.90;;;;;;5106155;28;20036;-78
2022/10/02 06:46:16;;;;;;;7.82;3.03;;;11.40;99.90;;;;;;5093650;28;20047;-78
2022/10/02 06:48:42;;;;;;;12.68;2.33;;;11.50;99.90;;;;;;5084186;28;20047;-78
2022/10/02 06:51:39;;;;;;;12.82;2.20;;;11.50;99.90;;;;;;5103367;28;20059;-78
2022/10/02 06:54:32;;;;;;;10.23;1.83;;;11.60;99.90;;;;;;5122137;27;20039;-79
2022/10/02 06:57:14;;;;;;;6.47;1.85;;;11.60;99.90;;;;;;5091572;28;20077;-79
2022/10/02 06:59:43;;;;;;;13.32;2.30;;;11.70;99.90;;;;;;5089965;28;20036;-80
2022/10/02 07:02:16;;;;;;;15.18;2.28;;;11.80;99.90;;;;;;5105507;28;20044;-79
2022/10/02 07:04:59;;;;;;;9.45;2.80;;;11.80;99.90;;;;;;5087879;28;20044;-79
2022/10/02 07:07:32;;;;;;;11.40;2.10;;;11.90;99.90;;;;;;5098303;28;20068;-78
2022/10/02 07:10:41;;;;;;;8.75;1.67;;;12.00;99.90;;;;;;5106619;28;20089;-78
2022/10/02 07:13:29;;;;;;;8.82;1.92;;;12.00;99.90;;;;;;5118348;27;20116;-78
2022/10/02 07:16:20;;;;;;;7.60;1.63;;;12.30;99.90;;;;;;5086883;28;20579;-77
2022/10/02 07:19:23;;;;;;;6.53;1.45;;;12.60;99.90;;;;;;5092508;28;20056;-78
2022/10/02 07:22:04;;;;;;;11.20;1.60;;;12.60;99.90;;;;;;5120813;27;20458;-79
2022/10/02 07:24:42;;;;;;;13.98;2.53;;;12.70;99.90;;;;;;5091063;28;20040;-79
2022/10/02 07:27:08;;;;;;;12.82;2.88;;;12.80;99.90;;;;;;5098539;28;20056;-79
2022/10/02 07:29:47;;;;;;;12.25;2.65;;;12.90;99.90;;;;;;5063605;28;20048;-79
2022/10/02 07:32:39;;;;;;;9.00;1.60;;;13.00;99.90;;;;;;5095489;28;20127;-79
2022/10/02 07:35:32;;;;;;;8.35;2.42;;;13.20;99.90;;;;;;5074690;28;20062;-78
2022/10/02 07:38:19;;;;;;;8.10;1.85;;;13.40;99.90;;;;;;5116684;28;20440;-80
2022/10/02 07:41:10;;;;;;;14.15;2.00;;;13.60;99.90;;;;;;5082952;28;20044;-78
2022/10/02 07:44:17;;;;;;;15.13;1.95;;;13.70;99.90;;;;;;5104135;28;20044;-78
2022/10/02 07:46:53;;;;;;;7.90;1.73;;;13.80;99.90;;;;;;5093532;28;20056;-78
2022/10/02 07:49:46;;;;;;;13.10;1.77;;;13.80;99.90;;;;;;5100030;28;20048;-79
2022/10/02 07:52:24;;;;;;;11.63;2.08;;;13.80;99.90;;;;;;5093944;28;20044;-79
2022/10/02 07:54:52;;;;;;;11.52;1.48;;;13.80;99.90;;;;;;5101439;28;20060;-78
2022/10/02 07:57:21;;;;;;;13.73;2.22;;;13.80;99.90;;;;;;5087646;28;20059;-78
2022/10/02 07:59:48;;;;;;;10.40;2.35;;;13.80;99.90;;;;;;5119169;28;20866;-78
2022/10/02 08:02:41;;;;;;;8.57;1.95;;;13.90;99.90;;;;;;5101769;28;20048;-78
2022/10/02 08:05:17;;;;;;;11.88;1.80;;;14.00;99.90;;;;;;5096102;28;20031;-78
2022/10/02 08:07:45;;;;;;;10.82;1.98;;;14.00;99.90;;;;;;5097583;28;20067;-78
2022/10/02 08:10:14;;;;;;;10.80;1.75;;;14.00;99.90;;;;;;5114743;28;20054;-78
2022/10/02 08:12:49;;;;;;;6.45;2.00;;;14.00;99.90;;;;;;5118773;28;20051;-79
2022/10/02 08:15:19;;;;;;;8.18;1.67;;;14.10;99.90;;;;;;5096113;28;20044;-78
2022/10/02 08:18:20;;;;;;;11.30;1.80;;;14.00;99.90;;;;;;5120108;28;20044;-77
2022/10/02 08:20:48;;;;;;;10.50;2.00;;;14.00;99.90;;;;;;5103341;28;20055;-78
2022/10/02 08:23:36;;;;;;;14.95;2.03;;;14.10;99.90;;;;;;5118098;28;20047;-78
2022/10/02 08:26:23;;;;;;;16.25;2.10;;;14.10;99.90;;;;;;5111281;28;20107;-78
2022/10/02 08:29:07;;;;;;;11.88;2.10;;;14.10;99.90;;;;;;5118674;28;20084;-79
2022/10/02 08:31:33;;;;;;;8.50;1.67;;;14.10;99.90;;;;;;5114903;28;20078;-78
2022/10/02 08:34:15;;;;;;;11.10;3.15;;;14.20;99.90;;;;;;5103551;28;20043;-78
2022/10/02 08:36:58;;;;;;;5.65;2.03;;;14.30;99.90;;;;;;5098505;28;20047;-78
2022/10/02 08:40:11;;;;;;;8.32;2.00;;;14.40;99.90;;;;;;5102254;28;20051;-78
2022/10/02 08:42:45;;;;;;;13.93;2.30;;;14.50;99.90;;;;;;5065249;28;20060;-78
2022/10/02 08:45:34;;;;;;;5.80;1.40;;;14.60;99.90;;;;;;5079874;28;20120;-78
2022/10/02 08:48:53;;;;;;;9.82;1.80;;;14.70;99.90;;;;;;5118685;28;20051;-79
2022/10/02 08:52:00;;;;;;;10.00;1.77;;;14.80;99.90;;;;;;5077912;28;20516;-78
2022/10/02 08:54:54;;;;;;;10.05;2.03;;;14.90;99.90;;;;;;5086255;28;20062;-79
2022/10/02 08:57:35;;;;;;;14.40;2.17;;;15.10;99.90;;;;;;5084101;28;20552;-79
2022/10/02 09:00:21;;;;;;;5.07;1.17;;;15.20;99.90;;;;;;5121428;28;20425;-79
2022/10/02 09:03:18;;;;;;;3.25;1.33;;;15.30;99.90;;;;;;5100880;28;20048;-78
2022/10/02 09:05:56;;;;;;;10.40;1.60;;;15.40;99.90;;;;;;5099598;28;20048;-79
2022/10/02 09:08:27;;;;;;;9.55;1.50;;;15.50;99.90;;;;;;5096511;28;20058;-78
2022/10/02 09:11:05;;;;;;;6.25;2.00;;;15.50;99.90;;;;;;5096077;28;20067;-79
2022/10/02 09:13:41;;;;;;;10.57;1.52;;;15.60;99.90;;;;;;5105608;28;20672;-79
2022/10/02 09:16:16;;;;;;;10.07;1.48;;;15.70;99.90;;;;;;5103912;28;20078;-79
2022/10/02 09:19:04;;;;;;;13.77;1.80;;;15.90;99.90;;;;;;5104256;28;20043;-79
2022/10/02 09:21:48;;;;;;;12.05;1.60;;;15.90;99.90;;;;;;5097992;28;20039;-79
2022/10/02 09:24:45;;;;;;;9.35;1.60;;;16.10;99.90;;;;;;5105686;28;20470;-79
2022/10/02 09:27:46;;;;;;;8.95;1.27;;;16.50;99.90;;;;;;5121287;28;20052;-79
2022/10/02 09:30:20;;;;;;;13.82;1.80;;;17.10;99.90;;;;;;5099552;28;20056;-79
2022/10/02 09:33:18;;;;;;;9.38;1.55;;;17.60;99.90;;;;;;5096484;28;20048;-78
2022/10/02 09:36:05;;;;;;;9.60;1.52;;;18.20;99.90;;;;;;5103697;28;20073;-78
2022/10/02 09:38:50;;;;;;;10.52;1.60;;;18.40;99.90;;;;;;5106382;28;20043;-78
2022/10/02 09:41:38;;;;;;;10.25;1.55;;;18.40;99.90;;;;;;5102213;28;20047;-78
2022/10/02 09:44:28;;;;;;;10.35;2.00;;;18.20;99.90;;;;;;5093522;28;20184;-79
2022/10/02 09:47:34;;;;;;;9.85;1.77;;;18.20;99.90;;;;;;5101807;28;20047;-79
2022/10/02 09:50:18;;;;;;;11.55;1.90;;;18.50;99.90;;;;;;5100743;28;20048;-79
2022/10/02 09:52:50;;;;;;;10.90;1.50;;;18.20;99.90;;;;;;5092582;28;20089;-79
2022/10/02 09:56:10;;;;;;;6.63;1.50;;;18.40;99.90;;;;;;5103986;27;20044;-79
2022/10/02 09:58:47;;;;;;;10.95;1.77;;;18.10;99.90;;;;;;5083636;28;20108;-79
2022/10/02 10:01:28;;;;;;;9.13;1.80;;;17.70;99.90;;;;;;5110985;28;20111;-79
2022/10/02 10:04:28;;;;;;;12.27;2.65;;;17.60;99.90;;;;;;5101922;28;20055;-79
2022/10/02 10:07:32;;;;;;;7.53;2.00;;;17.60;99.90;;;;;;5104352;28;20048;-79
2022/10/02 10:10:23;;;;;;;8.80;1.88;;;17.60;99.90;;;;;;5101002;28;20039;-78
2022/10/02 10:13:26;;;;;;;8.00;1.27;;;17.70;99.90;;;;;;5110653;28;20047;-79
2022/10/02 10:16:20;;;;;;;4.25;1.35;;;17.80;99.90;;;;;;5083169;28;20168;-78
2022/10/02 10:19:05;;;;;;;9.02;1.20;;;18.00;99.90;;;;;;5113612;28;20044;-79
2022/10/02 10:22:03;;;;;;;6.00;1.30;;;18.10;99.90;;;;;;5102693;28;20043;-79
2022/10/02 10:24:54;;;;;;;7.55;1.30;;;18.30;99.90;;;;;;5090569;28;20056;-78
2022/10/02 10:27:29;;;;;;;10.25;1.45;;;18.30;99.90;;;;;;5100085;28;20042;-78
2022/10/02 10:30:00;;;;;;;7.95;1.15;;;18.20;99.90;;;;;;5119991;28;20058;-79
2022/10/02 10:32:48;;;;;;;9.07;2.03;;;18.20;99.90;;;;;;5120607;28;20051;-78
2022/10/02 10:35:41;;;;;;;3.33;0.98;;;18.20;99.90;;;;;;5101359;28;20051;-79
2022/10/02 10:38:31;;;;;;;7.35;1.35;;;18.20;99.90;;;;;;5115255;28;20043;-79
2022/10/02 10:41:16;;;;;;;3.63;1.38;;;18.20;99.90;;;;;;5114915;28;20052;-77
2022/10/02 10:44:03;;;;;;;6.53;1.10;;;18.30;99.90;;;;;;5098895;28;20039;-79
2022/10/02 10:46:38;;;;;;;6.57;1.10;;;18.40;99.90;;;;;;5119555;27;20044;-79
2022/10/02 10:49:38;;;;;;;5.53;1.08;;;18.40;99.90;;;;;;5097116;28;20079;-79
2022/10/02 10:52:41;;;;;;;7.43;1.10;;;18.30;99.90;;;;;;5114451;28;20072;-79
2022/10/02 10:55:19;;;;;;;2.88;1.02;;;18.00;99.90;;;;;;5081468;28;20056;-79
2022/10/02 10:58:31;;;;;;;8.43;2.67;;;17.60;99.90;;;;;;5088545;28;20048;-78
2022/10/02 11:01:19;;;;;;;5.50;1.40;;;17.30;99.90;;;;;;5096842;28;20047;-79
2022/10/02 11:04:20;;;;;;;4.63;1.10;;;17.10;99.90;;;;;;5091164;28;20055;-79
2022/10/02 11:06:58;;;;;;;3.00;1.08;;;17.00;99.90;;;;;;5091173;28;20086;-78
2022/10/02 11:09:57;;;;;;;4.10;0.95;;;17.10;99.90;;;;;;5094834;28;20047;-79
2022/10/02 11:12:47;;;;;;;4.55;1.00;;;17.30;99.90;;;;;;5101802;28;20090;-79
2022/10/02 11:15:35;;;;;;;5.38;1.08;;;17.20;99.90;;;;;;5082863;28;20163;-80
2022/10/02 11:18:05;;;;;;;5.65;1.25;;;17.30;99.90;;;;;;5113056;28;20101;-80
2022/10/02 11:20:39;;;;;;;8.57;1.20;;;17.30;99.90;;;;;;5099871;28;20160;-79
2022/10/02 11:23:20;;;;;;;13.35;2.70;;;17.50;99.90;;;;;;5093979;28;20386;-79
2022/10/02 11:25:55;;;;;;;6.72;1.30;;;17.60;99.90;;;;;;5088166;28;20039;-79
2022/10/02 11:28:46;;;;;;;10.25;1.85;;;17.90;99.90;;;;;;5100438;28;20051;-79
2022/10/02 11:31:29;;;;;;;6.45;1.23;;;18.10;99.90;;;;;;5084404;28;20072;-80
2022/10/02 11:34:32;;;;;;;10.23;1.33;;;18.30;99.90;;;;;;5095820;28;20062;-79
2022/10/02 11:37:16;;;;;;;9.75;1.60;;;18.30;99.90;;;;;;5080805;28;20197;-79
2022/10/02 11:40:01;;;;;;;8.15;1.52;;;18.30;99.90;;;;;;5082240;28;20275;-79
2022/10/02 11:42:53;;;;;;;6.57;1.10;;;18.30;99.90;;;;;;5120990;28;20078;-81
2022/10/02 11:45:33;;;;;;;7.85;1.50;;;18.40;99.90;;;;;;5099209;28;20083;-83
2022/10/02 11:48:32;;;;;;;8.82;1.40;;;18.60;99.90;;;;;;5097126;28;20048;-84
2022/10/02 11:51:09;;;;;;;10.10;1.42;;;18.80;99.90;;;;;;5108176;28;20051;-85
2022/10/02 11:54:00;;;;;;;6.88;1.17;;;18.90;99.90;;;;;;5101860;28;20414;-84
2022/10/02 11:56:55;;;;;;;5.80;1.20;;;18.70;99.90;;;;;;5102624;28;20055;-84
2022/10/02 11:59:42;;;;;;;5.05;1.45;;;18.30;99.90;;;;;;5090752;28;20470;-83
2022/10/02 12:02:46;;;;;;;4.90;1.85;;;17.80;99.90;;;;;;5101536;28;20074;-84
2022/10/02 12:05:44;;;;;;;8.98;1.77;;;17.40;99.90;;;;;;5080642;28;20044;-83
2022/10/02 12:08:36;;;;;;;6.13;1.08;;;16.90;99.90;;;;;;5083759;28;20113;-81
2022/10/02 12:11:40;;;;;;;4.90;1.45;;;16.70;99.90;;;;;;5087173;28;20070;-81
2022/10/02 12:14:15;;;;;;;7.82;1.30;;;16.70;99.90;;;;;;5086853;28;20044;-79
2022/10/02 12:17:18;;;;;;;7.63;1.27;;;16.80;99.90;;;;;;5088720;28;20052;-79
2022/10/02 12:29:28;;;;;;;6.88;1.67;;;17.80;99.90;;;;;;5122715;28;20051;-77
2022/10/02 12:32:14;;;;;;;6.10;1.90;;;18.00;99.90;;;;;;5081702;28;20063;-78
2022/10/02 12:34:47;;;;;;;4.80;1.02;;;18.00;99.90;;;;;;5062555;28;20062;-77
2022/10/02 12:37:41;;;;;;;4.70;1.45;;;18.10;99.90;;;;;;5108449;28;20047;-78
2022/10/02 12:40:19;;;;;;;4.85;1.00;;;18.20;99.90;;;;;;5098433;28;20130;-78
2022/10/02 12:43:01;;;;;;;7.55;1.10;;;18.20;99.90;;;;;;5125640;28;20094;-77
2022/10/02 12:45:32;;;;;;;2.95;1.08;;;18.30;99.90;;;;;;5106178;28;20486;-77
2022/10/02 12:48:13;;;;;;;4.88;1.13;;;18.30;99.90;;;;;;5106008;28;20070;-78
2022/10/02 12:50:46;;;;;;;6.65;1.20;;;18.30;99.90;;;;;;5100017;28;20031;-78
2022/10/02 12:53:35;;;;;;;3.85;0.90;;;18.30;99.90;;;;;;5120888;28;20130;-79
2022/10/02 12:56:38;;;;;;;7.85;1.27;;;18.20;99.90;;;;;;5106675;28;20060;-78
2022/10/02 12:59:48;;;;;;;15.20;2.65;;;18.10;99.90;;;;;;5106987;28;20530;-78
2022/10/02 13:02:51;;;;;;;5.32;1.42;;;17.90;99.90;;;;;;5084068;28;20074;-78
2022/10/02 13:05:42;;;;;;;6.95;2.30;;;17.80;99.90;;;;;;5084456;28;20032;-78
2022/10/02 13:08:36;;;;;;;10.82;1.30;;;17.60;99.90;;;;;;5086881;28;20097;-78
2022/10/02 13:11:08;;;;;;;8.45;1.52;;;17.50;99.90;;;;;;5102596;28;20044;-77
2022/10/02 13:14:03;;;;;;;8.93;1.42;;;17.40;99.90;;;;;;5105303;28;20043;-78
2022/10/02 13:16:41;;;;;;;4.05;1.00;;;17.60;99.90;;;;;;5123824;28;20106;-78
2022/10/02 13:19:17;;;;;;;5.00;1.00;;;17.80;99.90;;;;;;5091927;28;20036;-78
2022/10/02 13:22:08;;;;;;;8.02;1.27;;;18.10;99.90;;;;;;5081673;28;20097;-80
2022/10/02 13:25:16;;;;;;;9.68;1.13;;;18.30;99.90;;;;;;5123111;28;20051;-80
2022/10/02 13:28:00;;;;;;;7.40;1.15;;;18.30;99.90;;;;;;5097884;28;20764;-80
2022/10/02 13:30:32;;;;;;;5.15;1.17;;;18.20;99.90;;;;;;5124489;28;20084;-81
2022/10/02 13:33:23;;;;;;;6.15;1.40;;;18.00;99.90;;;;;;5092058;28;20097;-79
2022/10/02 13:35:56;;;;;;;4.35;0.80;;;18.00;99.90;;;;;;5100244;28;20067;-80
2022/10/02 13:38:54;;;;;;;8.93;1.63;;;17.90;99.90;;;;;;5102882;28;20047;-80
2022/10/02 13:41:40;;;;;;;6.63;1.40;;;17.70;99.90;;;;;;5102065;28;20044;-79
2022/10/02 13:44:24;;;;;;;5.43;1.05;;;17.40;99.90;;;;;;5108224;28;20093;-80
2022/10/02 13:47:04;;;;;;;3.90;0.82;;;17.20;99.90;;;;;;5123443;28;20482;-80
2022/10/02 13:49:54;;;;;;;5.80;1.10;;;17.10;99.90;;;;;;5064031;28;20108;-80
2022/10/02 13:52:52;;;;;;;7.10;1.15;;;17.20;99.90;;;;;;5102000;28;20043;-80
2022/10/02 13:55:36;;;;;;;5.18;1.27;;;17.20;99.90;;;;;;5086894;28;20064;-80
2022/10/02 13:58:14;;;;;;;4.30;0.90;;;17.30;99.90;;;;;;5083814;28;20055;-80
2022/10/02 14:01:07;;;;;;;4.90;1.08;;;17.30;99.90;;;;;;5084831;28;20059;-80
2022/10/02 14:04:10;;;;;;;10.45;1.10;;;17.40;99.90;;;;;;5084311;28;20055;-80
2022/10/02 14:07:13;;;;;;;8.48;1.65;;;17.50;99.90;;;;;;5103390;28;20048;-80